Terminal Aerodrome Forecast
Issued by NWS New Orleans/Baton Rouge, LA

Home | Current Version | Previous Version | Text Only | Print | Product List | Glossary On
Versions: 1 2 3 4 5 6 7 8 9 10 11 12 13 14 15 16 17 18 19 20
000
FTUS44 KLIX 170531
TAFBTR
TAF
KBTR 170531Z 1706/1806 15009KT P6SM BKN012 OVC023
     FM170900 15006KT 3SM BR BKN010
     FM171200 15005KT 3/4SM BR OVC003
     FM171500 16006KT 4SM BR BKN007
     FM171600 17007KT P6SM BKN012
     FM171900 18008KT P6SM VCSH BKN045=

USA.gov is the U.S. government's official web portal to all federal, state and local government web resources and services.